Huvudsida
METAR-TAF:

METAR-TAF

Flygplatser :

Amman Civil Airport

Amman, Jordanien

latitud: 31-59N, longitud: 035-59E, höjd: 767 m

Aktuellt väderrapport

Denna rapport gjordes för 28 minuter sedan, klockan 13:00 UTC
Vind 10 kt från nordväst
Temperatur 26°C
Fuktighet 48%
Tryck 1017 hPa
Sikt: 5000 m
torrdis

METAR: OJAM 151300Z 32010KT 5000 HZ NSC 26/14 Q1017 NOSIG

Tid: 16:28 (13:28 UTC)

Väderprognos

Denna rapport gjordes för 2 timmar och 28 minuter sedan, klockan 11:00 UTC
Prognos gäller från 15 kl. 12 UTC till 16 kl. 18 UTC
Vind 6 kt från väst
Sikt: 5000 m
Få moln på en höjd av 4000 ft
torrdis
Sannolikhet 40%
från 16 kl. 02 UTC till 16 kl. 06 UTC
Sikt: 3000 m
rök

TAF: OJAM 151100Z 1512/1618 28006KT 5000 HZ FEW040 PROB40 1602/1606 3000 FU

Aktuella väderrapporter och prognoser från 4000 flygplatser (METAR- och TAF-rapporter).

De tillgängliga stationerna syns som gula och röda prickar på kartan.

För musen över prickarna för att se namnen på stationerna.

Klicka sedan för att få väderrapporter och prognoser.

För att ändra kartan: Klicka på de gröna knapparna med ett svart kors på för att zooma in; den gröna knappen med ett streck på för att zooma ut; eller på de gröna pilarna för angränsande kartor.


METAR-TAF: